sensor_id;sensor_type;location;lat;lon;timestamp;temperature;humidity
66013;DHT22;52783;50.502;8.190;2023-06-10T00:01:12;19.20;99.90
66013;DHT22;52783;50.502;8.190;2023-06-10T00:03:38;19.20;99.90
66013;DHT22;52783;50.502;8.190;2023-06-10T00:06:04;19.20;99.90
66013;DHT22;52783;50.502;8.190;2023-06-10T00:08:30;19.20;99.90
66013;DHT22;52783;50.502;8.190;2023-06-10T00:10:56;19.10;99.90
66013;DHT22;52783;50.502;8.190;2023-06-10T00:13:21;19.20;99.90
66013;DHT22;52783;50.502;8.190;2023-06-10T00:15:47;19.20;99.90
66013;DHT22;52783;50.502;8.190;2023-06-10T00:18:12;19.20;99.90
66013;DHT22;52783;50.502;8.190;2023-06-10T00:20:38;19.20;99.90
66013;DHT22;52783;50.502;8.190;2023-06-10T00:23:04;19.20;99.90
66013;DHT22;52783;50.502;8.190;2023-06-10T00:25:32;19.20;99.90
66013;DHT22;52783;50.502;8.190;2023-06-10T00:27:58;19.20;99.90
66013;DHT22;52783;50.502;8.190;2023-06-10T00:30:23;19.20;99.90
66013;DHT22;52783;50.502;8.190;2023-06-10T00:32:49;19.10;99.90
66013;DHT22;52783;50.502;8.190;2023-06-10T00:35:15;19.20;99.90
66013;DHT22;52783;50.502;8.190;2023-06-10T00:37:40;19.20;99.90
66013;DHT22;52783;50.502;8.190;2023-06-10T00:40:06;19.20;99.90
66013;DHT22;52783;50.502;8.190;2023-06-10T00:42:34;19.20;99.90
66013;DHT22;52783;50.502;8.190;2023-06-10T00:45:00;19.20;99.90
66013;DHT22;52783;50.502;8.190;2023-06-10T00:47:25;19.20;99.90
66013;DHT22;52783;50.502;8.190;2023-06-10T00:49:51;19.20;99.90
66013;DHT22;52783;50.502;8.190;2023-06-10T00:52:18;19.20;99.90
66013;DHT22;52783;50.502;8.190;2023-06-10T00:54:45;19.10;99.90
66013;DHT22;52783;50.502;8.190;2023-06-10T00:57:12;19.10;99.90
66013;DHT22;52783;50.502;8.190;2023-06-10T00:59:38;19.10;99.90
66013;DHT22;52783;50.502;8.190;2023-06-10T01:02:05;19.10;99.90
66013;DHT22;52783;50.502;8.190;2023-06-10T01:04:30;19.10;99.90
66013;DHT22;52783;50.502;8.190;2023-06-10T01:07:12;19.00;99.90
66013;DHT22;52783;50.502;8.190;2023-06-10T01:10:05;19.00;99.90
66013;DHT22;52783;50.502;8.190;2023-06-10T01:12:37;19.00;99.90
66013;DHT22;52783;50.502;8.190;2023-06-10T01:15:05;19.00;99.90
66013;DHT22;52783;50.502;8.190;2023-06-10T01:17:31;19.00;99.90
66013;DHT22;52783;50.502;8.190;2023-06-10T01:19:57;19.00;99.90
66013;DHT22;52783;50.502;8.190;2023-06-10T01:22:24;19.00;99.90
66013;DHT22;52783;50.502;8.190;2023-06-10T01:24:51;19.00;99.90
66013;DHT22;52783;50.502;8.190;2023-06-10T01:27:19;18.90;99.90
66013;DHT22;52783;50.502;8.190;2023-06-10T01:29:54;18.90;99.90
66013;DHT22;52783;50.502;8.190;2023-06-10T01:32:29;18.90;99.90
66013;DHT22;52783;50.502;8.190;2023-06-10T01:34:59;18.90;99.90
66013;DHT22;52783;50.502;8.190;2023-06-10T01:37:26;18.90;99.90
66013;DHT22;52783;50.502;8.190;2023-06-10T01:39:55;18.80;99.90
66013;DHT22;52783;50.502;8.190;2023-06-10T01:42:21;18.90;99.90
66013;DHT22;52783;50.502;8.190;2023-06-10T01:44:47;18.90;99.90
66013;DHT22;52783;50.502;8.190;2023-06-10T01:47:13;18.90;99.90
66013;DHT22;52783;50.502;8.190;2023-06-10T01:49:38;18.80;99.90
66013;DHT22;52783;50.502;8.190;2023-06-10T01:52:04;18.80;99.90
66013;DHT22;52783;50.502;8.190;2023-06-10T01:54:29;18.70;99.90
66013;DHT22;52783;50.502;8.190;2023-06-10T01:56:55;18.80;99.90
66013;DHT22;52783;50.502;8.190;2023-06-10T01:59:20;18.70;99.90
66013;DHT22;52783;50.502;8.190;2023-06-10T02:01:46;18.70;99.90
66013;DHT22;52783;50.502;8.190;2023-06-10T02:04:11;18.80;99.90
66013;DHT22;52783;50.502;8.190;2023-06-10T02:06:37;18.80;99.90
66013;DHT22;52783;50.502;8.190;2023-06-10T02:09:03;18.80;99.90
66013;DHT22;52783;50.502;8.190;2023-06-10T02:11:28;18.70;99.90
66013;DHT22;52783;50.502;8.190;2023-06-10T02:13:54;18.70;99.90
66013;DHT22;52783;50.502;8.190;2023-06-10T02:16:20;18.80;99.90
66013;DHT22;52783;50.502;8.190;2023-06-10T02:18:46;18.70;99.90
66013;DHT22;52783;50.502;8.190;2023-06-10T02:21:12;18.70;99.90
66013;DHT22;52783;50.502;8.190;2023-06-10T02:23:38;18.70;99.90
66013;DHT22;52783;50.502;8.190;2023-06-10T02:26:03;18.70;99.90
66013;DHT22;52783;50.502;8.190;2023-06-10T02:28:29;18.70;99.90
66013;DHT22;52783;50.502;8.190;2023-06-10T02:30:54;18.70;99.90
66013;DHT22;52783;50.502;8.190;2023-06-10T02:33:22;18.70;99.90
66013;DHT22;52783;50.502;8.190;2023-06-10T02:35:48;18.70;99.90
66013;DHT22;52783;50.502;8.190;2023-06-10T02:38:14;18.70;99.90
66013;DHT22;52783;50.502;8.190;2023-06-10T02:40:39;18.60;99.90
66013;DHT22;52783;50.502;8.190;2023-06-10T02:43:05;18.60;99.90
66013;DHT22;52783;50.502;8.190;2023-06-10T02:45:30;18.60;99.90
66013;DHT22;52783;50.502;8.190;2023-06-10T02:47:56;18.60;99.90
66013;DHT22;52783;50.502;8.190;2023-06-10T02:50:21;18.60;99.90
66013;DHT22;52783;50.502;8.190;2023-06-10T02:52:47;18.60;99.90
66013;DHT22;52783;50.502;8.190;2023-06-10T02:55:13;18.60;99.90
66013;DHT22;52783;50.502;8.190;2023-06-10T02:57:39;18.60;99.90
66013;DHT22;52783;50.502;8.190;2023-06-10T03:00:05;18.60;99.90
66013;DHT22;52783;50.502;8.190;2023-06-10T03:02:35;18.60;99.90
66013;DHT22;52783;50.502;8.190;2023-06-10T03:05:02;18.70;99.90
66013;DHT22;52783;50.502;8.190;2023-06-10T03:07:28;18.60;99.90
66013;DHT22;52783;50.502;8.190;2023-06-10T03:09:53;18.60;99.90
66013;DHT22;52783;50.502;8.190;2023-06-10T03:12:18;18.70;99.90
66013;DHT22;52783;50.502;8.190;2023-06-10T03:14:44;18.60;99.90
66013;DHT22;52783;50.502;8.190;2023-06-10T03:17:10;18.60;99.90
66013;DHT22;52783;50.502;8.190;2023-06-10T03:19:35;18.60;99.90
66013;DHT22;52783;50.502;8.190;2023-06-10T03:22:13;18.60;99.90
66013;DHT22;52783;50.502;8.190;2023-06-10T03:24:40;18.60;99.90
66013;DHT22;52783;50.502;8.190;2023-06-10T03:27:09;18.60;99.90
66013;DHT22;52783;50.502;8.190;2023-06-10T03:29:39;18.60;99.90
66013;DHT22;52783;50.502;8.190;2023-06-10T03:32:05;18.60;99.90
66013;DHT22;52783;50.502;8.190;2023-06-10T03:34:31;18.60;99.90
66013;DHT22;52783;50.502;8.190;2023-06-10T03:36:57;18.60;99.90
66013;DHT22;52783;50.502;8.190;2023-06-10T03:39:23;18.60;99.90
66013;DHT22;52783;50.502;8.190;2023-06-10T03:41:49;18.60;99.90
66013;DHT22;52783;50.502;8.190;2023-06-10T03:44:15;18.60;99.90
66013;DHT22;52783;50.502;8.190;2023-06-10T03:46:40;18.60;99.90
66013;DHT22;52783;50.502;8.190;2023-06-10T03:49:06;18.60;99.90
66013;DHT22;52783;50.502;8.190;2023-06-10T03:51:32;18.60;99.90
66013;DHT22;52783;50.502;8.190;2023-06-10T03:53:57;18.60;99.90
66013;DHT22;52783;50.502;8.190;2023-06-10T03:56:23;18.60;99.90
66013;DHT22;52783;50.502;8.190;2023-06-10T03:58:48;18.60;99.90
66013;DHT22;52783;50.502;8.190;2023-06-10T04:01:14;18.60;99.90
66013;DHT22;52783;50.502;8.190;2023-06-10T04:03:39;18.60;99.90
66013;DHT22;52783;50.502;8.190;2023-06-10T04:06:07;18.60;99.90
66013;DHT22;52783;50.502;8.190;2023-06-10T04:08:32;18.60;99.90
66013;DHT22;52783;50.502;8.190;2023-06-10T04:10:59;18.70;99.90
66013;DHT22;52783;50.502;8.190;2023-06-10T04:13:24;18.70;99.90
66013;DHT22;52783;50.502;8.190;2023-06-10T04:15:50;18.80;99.90
66013;DHT22;52783;50.502;8.190;2023-06-10T04:18:16;18.90;99.90
66013;DHT22;52783;50.502;8.190;2023-06-10T04:20:41;18.90;99.90
66013;DHT22;52783;50.502;8.190;2023-06-10T04:23:07;18.90;99.90
66013;DHT22;52783;50.502;8.190;2023-06-10T04:25:33;19.00;99.90
66013;DHT22;52783;50.502;8.190;2023-06-10T04:27:59;19.30;99.90
66013;DHT22;52783;50.502;8.190;2023-06-10T04:30:24;19.50;99.90
66013;DHT22;52783;50.502;8.190;2023-06-10T04:32:50;19.70;99.90
66013;DHT22;52783;50.502;8.190;2023-06-10T04:35:16;19.80;99.90
66013;DHT22;52783;50.502;8.190;2023-06-10T04:37:41;20.00;99.90
66013;DHT22;52783;50.502;8.190;2023-06-10T04:40:08;20.00;99.90
66013;DHT22;52783;50.502;8.190;2023-06-10T04:42:34;20.40;99.90
66013;DHT22;52783;50.502;8.190;2023-06-10T04:45:00;20.50;99.90
66013;DHT22;52783;50.502;8.190;2023-06-10T04:47:26;20.90;99.90
66013;DHT22;52783;50.502;8.190;2023-06-10T04:49:52;21.10;99.90
66013;DHT22;52783;50.502;8.190;2023-06-10T04:52:18;21.10;99.90
66013;DHT22;52783;50.502;8.190;2023-06-10T04:54:43;21.60;99.90
66013;DHT22;52783;50.502;8.190;2023-06-10T04:57:09;21.50;99.90
66013;DHT22;52783;50.502;8.190;2023-06-10T04:59:37;21.70;99.90
66013;DHT22;52783;50.502;8.190;2023-06-10T05:02:04;21.70;99.90
66013;DHT22;52783;50.502;8.190;2023-06-10T05:04:29;21.80;99.90
66013;DHT22;52783;50.502;8.190;2023-06-10T05:06:55;22.10;99.90
66013;DHT22;52783;50.502;8.190;2023-06-10T05:09:21;22.60;99.90
66013;DHT22;52783;50.502;8.190;2023-06-10T05:11:46;22.80;99.90
66013;DHT22;52783;50.502;8.190;2023-06-10T05:14:12;22.60;99.90
66013;DHT22;52783;50.502;8.190;2023-06-10T05:16:38;22.50;99.90
66013;DHT22;52783;50.502;8.190;2023-06-10T05:19:04;23.00;99.90
66013;DHT22;52783;50.502;8.190;2023-06-10T05:21:29;22.80;99.90
66013;DHT22;52783;50.502;8.190;2023-06-10T05:23:55;23.00;99.90
66013;DHT22;52783;50.502;8.190;2023-06-10T05:26:21;23.40;99.90
66013;DHT22;52783;50.502;8.190;2023-06-10T05:28:47;23.60;99.90
66013;DHT22;52783;50.502;8.190;2023-06-10T05:31:12;23.30;99.90
66013;DHT22;52783;50.502;8.190;2023-06-10T05:33:38;23.40;99.90
66013;DHT22;52783;50.502;8.190;2023-06-10T05:36:04;23.80;99.90
66013;DHT22;52783;50.502;8.190;2023-06-10T05:38:30;23.60;99.90
66013;DHT22;52783;50.502;8.190;2023-06-10T05:40:55;23.80;99.90
66013;DHT22;52783;50.502;8.190;2023-06-10T05:43:22;24.30;99.90
66013;DHT22;52783;50.502;8.190;2023-06-10T05:45:47;24.30;99.90
66013;DHT22;52783;50.502;8.190;2023-06-10T05:48:13;24.40;99.90
66013;DHT22;52783;50.502;8.190;2023-06-10T05:50:39;24.20;99.90
66013;DHT22;52783;50.502;8.190;2023-06-10T05:53:07;24.00;99.90
66013;DHT22;52783;50.502;8.190;2023-06-10T05:55:41;24.50;99.90
66013;DHT22;52783;50.502;8.190;2023-06-10T05:58:06;24.40;99.90
66013;DHT22;52783;50.502;8.190;2023-06-10T06:00:32;24.80;99.90
66013;DHT22;52783;50.502;8.190;2023-06-10T06:02:57;24.80;99.90
66013;DHT22;52783;50.502;8.190;2023-06-10T06:05:24;24.80;99.90
66013;DHT22;52783;50.502;8.190;2023-06-10T06:07:49;25.00;99.90
66013;DHT22;52783;50.502;8.190;2023-06-10T06:10:17;25.20;99.90
66013;DHT22;52783;50.502;8.190;2023-06-10T06:12:42;24.20;99.90
66013;DHT22;52783;50.502;8.190;2023-06-10T06:15:08;25.00;99.90
66013;DHT22;52783;50.502;8.190;2023-06-10T06:17:34;24.40;99.90
66013;DHT22;52783;50.502;8.190;2023-06-10T06:19:59;24.60;99.90
66013;DHT22;52783;50.502;8.190;2023-06-10T06:22:25;24.10;99.90
66013;DHT22;52783;50.502;8.190;2023-06-10T06:24:50;24.70;99.90
66013;DHT22;52783;50.502;8.190;2023-06-10T06:27:16;25.20;99.90
66013;DHT22;52783;50.502;8.190;2023-06-10T06:29:41;25.00;99.90
66013;DHT22;52783;50.502;8.190;2023-06-10T06:32:07;23.90;99.90
66013;DHT22;52783;50.502;8.190;2023-06-10T06:34:33;24.40;99.90
66013;DHT22;52783;50.502;8.190;2023-06-10T06:36:58;24.10;99.90
66013;DHT22;52783;50.502;8.190;2023-06-10T06:39:24;24.30;99.90
66013;DHT22;52783;50.502;8.190;2023-06-10T06:41:50;23.80;99.90
66013;DHT22;52783;50.502;8.190;2023-06-10T06:44:15;24.00;99.90
66013;DHT22;52783;50.502;8.190;2023-06-10T06:46:41;24.50;99.90
66013;DHT22;52783;50.502;8.190;2023-06-10T06:49:06;24.30;99.90
66013;DHT22;52783;50.502;8.190;2023-06-10T06:51:32;23.80;99.90
66013;DHT22;52783;50.502;8.190;2023-06-10T06:53:57;24.30;99.90
66013;DHT22;52783;50.502;8.190;2023-06-10T06:56:24;24.80;99.90
66013;DHT22;52783;50.502;8.190;2023-06-10T06:58:51;24.50;99.90
66013;DHT22;52783;50.502;8.190;2023-06-10T07:01:17;25.40;99.90
66013;DHT22;52783;50.502;8.190;2023-06-10T07:03:42;25.70;99.90
66013;DHT22;52783;50.502;8.190;2023-06-10T07:06:08;25.20;99.90
66013;DHT22;52783;50.502;8.190;2023-06-10T07:08:33;25.50;99.90
66013;DHT22;52783;50.502;8.190;2023-06-10T07:10:59;25.00;99.90
66013;DHT22;52783;50.502;8.190;2023-06-10T07:13:24;25.50;99.90
66013;DHT22;52783;50.502;8.190;2023-06-10T07:15:50;25.20;99.90
66013;DHT22;52783;50.502;8.190;2023-06-10T07:18:15;25.50;99.90
66013;DHT22;52783;50.502;8.190;2023-06-10T07:20:42;25.90;99.90
66013;DHT22;52783;50.502;8.190;2023-06-10T07:23:08;25.80;99.90
66013;DHT22;52783;50.502;8.190;2023-06-10T07:25:33;25.20;99.90
66013;DHT22;52783;50.502;8.190;2023-06-10T07:27:59;25.40;99.90
66013;DHT22;52783;50.502;8.190;2023-06-10T07:30:24;25.90;99.90
66013;DHT22;52783;50.502;8.190;2023-06-10T07:32:51;26.00;99.90
66013;DHT22;52783;50.502;8.190;2023-06-10T07:35:17;27.00;99.90
66013;DHT22;52783;50.502;8.190;2023-06-10T07:37:42;26.70;99.90
66013;DHT22;52783;50.502;8.190;2023-06-10T07:40:08;26.00;99.90
66013;DHT22;52783;50.502;8.190;2023-06-10T07:42:35;27.10;99.90
66013;DHT22;52783;50.502;8.190;2023-06-10T07:45:02;27.60;99.90
66013;DHT22;52783;50.502;8.190;2023-06-10T07:47:28;26.90;99.90
66013;DHT22;52783;50.502;8.190;2023-06-10T07:49:53;28.00;99.90
66013;DHT22;52783;50.502;8.190;2023-06-10T07:52:19;27.90;99.90
66013;DHT22;52783;50.502;8.190;2023-06-10T07:54:45;28.40;99.90
66013;DHT22;52783;50.502;8.190;2023-06-10T07:57:10;29.00;99.90
66013;DHT22;52783;50.502;8.190;2023-06-10T07:59:36;29.00;99.90
66013;DHT22;52783;50.502;8.190;2023-06-10T08:02:01;28.50;99.90
66013;DHT22;52783;50.502;8.190;2023-06-10T08:04:27;28.10;99.90
66013;DHT22;52783;50.502;8.190;2023-06-10T08:06:52;28.80;99.90
66013;DHT22;52783;50.502;8.190;2023-06-10T08:09:18;29.70;99.90
66013;DHT22;52783;50.502;8.190;2023-06-10T08:11:44;29.60;99.90
66013;DHT22;52783;50.502;8.190;2023-06-10T08:14:11;28.50;99.90
66013;DHT22;52783;50.502;8.190;2023-06-10T08:16:37;28.30;99.90
66013;DHT22;52783;50.502;8.190;2023-06-10T08:19:02;28.80;99.90
66013;DHT22;52783;50.502;8.190;2023-06-10T08:21:28;28.50;99.90
66013;DHT22;52783;50.502;8.190;2023-06-10T08:23:54;28.30;99.90
66013;DHT22;52783;50.502;8.190;2023-06-10T08:26:19;29.10;99.90
66013;DHT22;52783;50.502;8.190;2023-06-10T08:28:45;29.00;99.90
66013;DHT22;52783;50.502;8.190;2023-06-10T08:31:10;29.60;99.90
66013;DHT22;52783;50.502;8.190;2023-06-10T08:33:36;27.50;99.90
66013;DHT22;52783;50.502;8.190;2023-06-10T08:36:02;28.50;99.90
66013;DHT22;52783;50.502;8.190;2023-06-10T08:38:27;27.40;99.90
66013;DHT22;52783;50.502;8.190;2023-06-10T08:40:56;28.20;99.90
66013;DHT22;52783;50.502;8.190;2023-06-10T08:43:39;29.40;99.90
66013;DHT22;52783;50.502;8.190;2023-06-10T08:46:08;29.70;99.90
66013;DHT22;52783;50.502;8.190;2023-06-10T08:48:35;29.80;99.90
66013;DHT22;52783;50.502;8.190;2023-06-10T08:51:04;29.30;99.90
66013;DHT22;52783;50.502;8.190;2023-06-10T08:53:31;28.70;99.90
66013;DHT22;52783;50.502;8.190;2023-06-10T08:56:00;30.10;99.90
66013;DHT22;52783;50.502;8.190;2023-06-10T08:58:27;30.30;99.90
66013;DHT22;52783;50.502;8.190;2023-06-10T09:00:53;30.60;99.90
66013;DHT22;52783;50.502;8.190;2023-06-10T09:03:19;30.00;99.90
66013;DHT22;52783;50.502;8.190;2023-06-10T09:05:45;30.00;99.90
66013;DHT22;52783;50.502;8.190;2023-06-10T09:08:11;29.80;99.90
66013;DHT22;52783;50.502;8.190;2023-06-10T09:10:36;30.20;99.90
66013;DHT22;52783;50.502;8.190;2023-06-10T09:13:03;29.20;99.90
66013;DHT22;52783;50.502;8.190;2023-06-10T09:15:28;28.30;99.90
66013;DHT22;52783;50.502;8.190;2023-06-10T09:17:54;28.70;99.90
66013;DHT22;52783;50.502;8.190;2023-06-10T09:20:19;27.90;99.90
66013;DHT22;52783;50.502;8.190;2023-06-10T09:22:45;28.70;99.90
66013;DHT22;52783;50.502;8.190;2023-06-10T09:25:12;28.10;99.90
66013;DHT22;52783;50.502;8.190;2023-06-10T09:27:48;28.60;99.90
66013;DHT22;52783;50.502;8.190;2023-06-10T09:30:31;28.50;99.90
66013;DHT22;52783;50.502;8.190;2023-06-10T09:32:59;29.70;99.90
66013;DHT22;52783;50.502;8.190;2023-06-10T09:35:26;30.00;99.90
66013;DHT22;52783;50.502;8.190;2023-06-10T09:37:57;30.60;99.90
66013;DHT22;52783;50.502;8.190;2023-06-10T09:40:23;31.10;99.90
66013;DHT22;52783;50.502;8.190;2023-06-10T09:43:00;29.80;99.90
66013;DHT22;52783;50.502;8.190;2023-06-10T09:45:32;29.90;99.90
66013;DHT22;52783;50.502;8.190;2023-06-10T09:47:57;29.20;99.90
66013;DHT22;52783;50.502;8.190;2023-06-10T09:50:23;29.80;99.90
66013;DHT22;52783;50.502;8.190;2023-06-10T09:52:50;30.40;99.90
66013;DHT22;52783;50.502;8.190;2023-06-10T09:55:16;29.80;99.90
66013;DHT22;52783;50.502;8.190;2023-06-10T09:57:42;29.50;99.90
66013;DHT22;52783;50.502;8.190;2023-06-10T10:00:11;29.30;99.90
66013;DHT22;52783;50.502;8.190;2023-06-10T10:02:51;29.80;99.90
66013;DHT22;52783;50.502;8.190;2023-06-10T10:05:18;30.00;99.90
66013;DHT22;52783;50.502;8.190;2023-06-10T10:07:45;29.80;99.90
66013;DHT22;52783;50.502;8.190;2023-06-10T10:10:12;30.20;99.90
66013;DHT22;52783;50.502;8.190;2023-06-10T10:12:39;30.30;99.90
66013;DHT22;52783;50.502;8.190;2023-06-10T10:15:09;30.10;99.90
66013;DHT22;52783;50.502;8.190;2023-06-10T10:17:42;30.20;99.90
66013;DHT22;52783;50.502;8.190;2023-06-10T10:20:12;28.90;99.90
66013;DHT22;52783;50.502;8.190;2023-06-10T10:22:39;28.60;99.90
66013;DHT22;52783;50.502;8.190;2023-06-10T10:25:12;29.00;99.90
66013;DHT22;52783;50.502;8.190;2023-06-10T10:27:47;29.20;99.90
66013;DHT22;52783;50.502;8.190;2023-06-10T10:30:14;28.70;99.90
66013;DHT22;52783;50.502;8.190;2023-06-10T10:35:47;28.20;99.90
66013;DHT22;52783;50.502;8.190;2023-06-10T10:38:14;27.50;99.90
66013;DHT22;52783;50.502;8.190;2023-06-10T10:40:40;27.80;99.90
66013;DHT22;52783;50.502;8.190;2023-06-10T10:43:06;28.10;99.90
66013;DHT22;52783;50.502;8.190;2023-06-10T10:45:33;28.20;99.90
66013;DHT22;52783;50.502;8.190;2023-06-10T10:48:05;27.50;99.90
66013;DHT22;52783;50.502;8.190;2023-06-10T10:50:31;28.00;99.90
66013;DHT22;52783;50.502;8.190;2023-06-10T10:53:03;27.10;99.90
66013;DHT22;52783;50.502;8.190;2023-06-10T10:55:29;27.20;99.90
66013;DHT22;52783;50.502;8.190;2023-06-10T10:57:59;27.40;99.90
66013;DHT22;52783;50.502;8.190;2023-06-10T11:00:35;26.80;99.90
66013;DHT22;52783;50.502;8.190;2023-06-10T11:08:01;26.90;99.90
66013;DHT22;52783;50.502;8.190;2023-06-10T11:10:35;27.00;99.90
66013;DHT22;52783;50.502;8.190;2023-06-10T11:13:09;26.80;99.90
66013;DHT22;52783;50.502;8.190;2023-06-10T11:15:48;26.80;99.90
66013;DHT22;52783;50.502;8.190;2023-06-10T11:18:24;26.80;99.90
66013;DHT22;52783;50.502;8.190;2023-06-10T11:28:39;26.80;99.90
66013;DHT22;52783;50.502;8.190;2023-06-10T11:31:05;27.20;99.90
66013;DHT22;52783;50.502;8.190;2023-06-10T11:33:31;26.90;99.90
66013;DHT22;52783;50.502;8.190;2023-06-10T11:35:57;26.80;99.90
66013;DHT22;52783;50.502;8.190;2023-06-10T11:38:24;26.80;99.90
66013;DHT22;52783;50.502;8.190;2023-06-10T11:40:50;27.30;99.90
66013;DHT22;52783;50.502;8.190;2023-06-10T11:43:19;27.30;99.90
66013;DHT22;52783;50.502;8.190;2023-06-10T11:45:45;27.30;99.90
66013;DHT22;52783;50.502;8.190;2023-06-10T11:48:12;27.40;99.90
66013;DHT22;52783;50.502;8.190;2023-06-10T11:50:38;27.20;99.90
66013;DHT22;52783;50.502;8.190;2023-06-10T11:53:03;27.20;99.90
66013;DHT22;52783;50.502;8.190;2023-06-10T11:55:49;26.70;99.90
66013;DHT22;52783;50.502;8.190;2023-06-10T11:58:21;27.10;99.90
66013;DHT22;52783;50.502;8.190;2023-06-10T12:00:49;27.20;99.90
66013;DHT22;52783;50.502;8.190;2023-06-10T12:03:15;27.10;99.90
66013;DHT22;52783;50.502;8.190;2023-06-10T12:05:53;27.10;99.90
66013;DHT22;52783;50.502;8.190;2023-06-10T12:08:19;26.70;99.90
66013;DHT22;52783;50.502;8.190;2023-06-10T12:10:44;26.80;99.90
66013;DHT22;52783;50.502;8.190;2023-06-10T12:13:10;26.90;99.90
66013;DHT22;52783;50.502;8.190;2023-06-10T12:15:35;27.10;99.90
66013;DHT22;52783;50.502;8.190;2023-06-10T12:18:02;27.10;99.90
66013;DHT22;52783;50.502;8.190;2023-06-10T12:20:29;27.00;99.90
66013;DHT22;52783;50.502;8.190;2023-06-10T12:22:55;27.40;99.90
66013;DHT22;52783;50.502;8.190;2023-06-10T12:25:25;27.70;99.90
66013;DHT22;52783;50.502;8.190;2023-06-10T12:27:54;27.90;99.90
66013;DHT22;52783;50.502;8.190;2023-06-10T12:30:21;27.90;99.90
66013;DHT22;52783;50.502;8.190;2023-06-10T12:32:47;27.50;99.90
66013;DHT22;52783;50.502;8.190;2023-06-10T12:35:16;27.70;99.90
66013;DHT22;52783;50.502;8.190;2023-06-10T12:37:53;27.70;99.90
66013;DHT22;52783;50.502;8.190;2023-06-10T12:40:26;27.40;99.90
66013;DHT22;52783;50.502;8.190;2023-06-10T12:42:52;28.10;99.90
66013;DHT22;52783;50.502;8.190;2023-06-10T12:45:26;28.30;99.90
66013;DHT22;52783;50.502;8.190;2023-06-10T12:48:22;28.20;99.90
66013;DHT22;52783;50.502;8.190;2023-06-10T12:50:56;28.00;99.90
66013;DHT22;52783;50.502;8.190;2023-06-10T12:53:22;28.30;99.90
66013;DHT22;52783;50.502;8.190;2023-06-10T12:55:49;28.40;99.90
66013;DHT22;52783;50.502;8.190;2023-06-10T12:58:14;28.30;99.90
66013;DHT22;52783;50.502;8.190;2023-06-10T13:00:40;28.00;99.90
66013;DHT22;52783;50.502;8.190;2023-06-10T13:03:08;27.80;99.90
66013;DHT22;52783;50.502;8.190;2023-06-10T13:05:35;27.70;99.90
66013;DHT22;52783;50.502;8.190;2023-06-10T13:08:05;27.50;99.90
66013;DHT22;52783;50.502;8.190;2023-06-10T13:10:30;27.40;99.90
66013;DHT22;52783;50.502;8.190;2023-06-10T13:12:56;28.00;99.90
66013;DHT22;52783;50.502;8.190;2023-06-10T13:15:22;27.90;99.90
66013;DHT22;52783;50.502;8.190;2023-06-10T13:17:47;27.80;99.90
66013;DHT22;52783;50.502;8.190;2023-06-10T13:20:16;28.00;99.90
66013;DHT22;52783;50.502;8.190;2023-06-10T13:22:42;28.20;99.90
66013;DHT22;52783;50.502;8.190;2023-06-10T13:25:08;27.60;99.90
66013;DHT22;52783;50.502;8.190;2023-06-10T13:27:35;27.60;99.90
66013;DHT22;52783;50.502;8.190;2023-06-10T13:30:00;27.60;99.90
66013;DHT22;52783;50.502;8.190;2023-06-10T13:32:26;27.50;99.90
66013;DHT22;52783;50.502;8.190;2023-06-10T13:34:52;27.70;99.90
66013;DHT22;52783;50.502;8.190;2023-06-10T13:37:19;27.40;99.90
66013;DHT22;52783;50.502;8.190;2023-06-10T13:39:45;27.40;99.90
66013;DHT22;52783;50.502;8.190;2023-06-10T13:42:14;27.50;99.90
66013;DHT22;52783;50.502;8.190;2023-06-10T13:44:40;27.50;99.90
66013;DHT22;52783;50.502;8.190;2023-06-10T13:47:06;27.40;99.90
66013;DHT22;52783;50.502;8.190;2023-06-10T13:49:32;27.80;99.90
66013;DHT22;52783;50.502;8.190;2023-06-10T13:51:57;27.70;99.90
66013;DHT22;52783;50.502;8.190;2023-06-10T13:54:23;27.90;99.90
66013;DHT22;52783;50.502;8.190;2023-06-10T13:56:48;27.30;99.90
66013;DHT22;52783;50.502;8.190;2023-06-10T13:59:14;27.80;99.90
66013;DHT22;52783;50.502;8.190;2023-06-10T14:01:40;27.70;99.90
66013;DHT22;52783;50.502;8.190;2023-06-10T14:04:08;27.70;99.90
66013;DHT22;52783;50.502;8.190;2023-06-10T14:06:33;27.70;99.90
66013;DHT22;52783;50.502;8.190;2023-06-10T14:09:02;27.80;99.90
66013;DHT22;52783;50.502;8.190;2023-06-10T14:11:28;27.70;99.90
66013;DHT22;52783;50.502;8.190;2023-06-10T14:13:53;27.70;99.90
66013;DHT22;52783;50.502;8.190;2023-06-10T14:16:21;27.80;99.90
66013;DHT22;52783;50.502;8.190;2023-06-10T14:18:47;27.60;99.90
66013;DHT22;52783;50.502;8.190;2023-06-10T14:21:13;27.50;99.90
66013;DHT22;52783;50.502;8.190;2023-06-10T14:23:38;27.70;99.90
66013;DHT22;52783;50.502;8.190;2023-06-10T14:26:04;27.70;99.90
66013;DHT22;52783;50.502;8.190;2023-06-10T14:28:31;27.70;99.90
66013;DHT22;52783;50.502;8.190;2023-06-10T14:30:57;27.60;99.90
66013;DHT22;52783;50.502;8.190;2023-06-10T14:33:23;28.00;99.90
66013;DHT22;52783;50.502;8.190;2023-06-10T14:35:48;28.00;99.90
66013;DHT22;52783;50.502;8.190;2023-06-10T14:38:14;27.90;99.90
66013;DHT22;52783;50.502;8.190;2023-06-10T14:40:39;28.10;99.90
66013;DHT22;52783;50.502;8.190;2023-06-10T14:43:05;28.00;99.90
66013;DHT22;52783;50.502;8.190;2023-06-10T14:45:41;27.90;99.90
66013;DHT22;52783;50.502;8.190;2023-06-10T14:48:07;27.90;99.90
66013;DHT22;52783;50.502;8.190;2023-06-10T14:50:36;27.80;99.90
66013;DHT22;52783;50.502;8.190;2023-06-10T14:53:01;27.60;99.90
66013;DHT22;52783;50.502;8.190;2023-06-10T14:55:27;27.60;99.90
66013;DHT22;52783;50.502;8.190;2023-06-10T14:57:53;28.00;99.90
66013;DHT22;52783;50.502;8.190;2023-06-10T15:00:19;28.00;99.90
66013;DHT22;52783;50.502;8.190;2023-06-10T15:02:47;27.60;99.90
66013;DHT22;52783;50.502;8.190;2023-06-10T15:05:14;27.60;99.90
66013;DHT22;52783;50.502;8.190;2023-06-10T15:07:43;27.50;99.90
66013;DHT22;52783;50.502;8.190;2023-06-10T15:10:09;27.80;99.90
66013;DHT22;52783;50.502;8.190;2023-06-10T15:12:35;27.60;99.90
66013;DHT22;52783;50.502;8.190;2023-06-10T15:15:01;27.50;99.90
66013;DHT22;52783;50.502;8.190;2023-06-10T15:17:27;27.60;99.90
66013;DHT22;52783;50.502;8.190;2023-06-10T15:19:53;27.60;99.90
66013;DHT22;52783;50.502;8.190;2023-06-10T15:22:18;27.80;99.90
66013;DHT22;52783;50.502;8.190;2023-06-10T15:24:44;27.70;99.90
66013;DHT22;52783;50.502;8.190;2023-06-10T15:27:09;27.80;99.90
66013;DHT22;52783;50.502;8.190;2023-06-10T15:29:35;28.00;99.90
66013;DHT22;52783;50.502;8.190;2023-06-10T15:32:01;28.00;99.90
66013;DHT22;52783;50.502;8.190;2023-06-10T15:34:26;27.80;99.90
66013;DHT22;52783;50.502;8.190;2023-06-10T15:36:52;27.50;99.90
66013;DHT22;52783;50.502;8.190;2023-06-10T15:39:17;27.50;99.90
66013;DHT22;52783;50.502;8.190;2023-06-10T15:41:44;27.70;99.90
66013;DHT22;52783;50.502;8.190;2023-06-10T15:44:10;28.00;99.90